Time;durP1;ratioP1;P1;durP2;ratioP2;P2;SDS_P1;SDS_P2;PMS_P1;PMS_P2;Temp;Humidity;BMP_temperature;BMP_pressure;BME280_temperature;BME280_humidity;BME280_pressure;Samples;Min_cycle;Max_cycle;Signal;HPM_P1;HPM_P2
2023/05/10 00:01:30;;;;;;;;;;;;;;;3.20;87.86;97871.77;110185;1241;71654;-74
2023/05/10 00:03:59;;;;;;;;;;;;;;;3.13;92.85;97870.45;110239;1240;69057;-74
2023/05/10 00:06:29;;;;;;;;;;;;;;;3.05;94.67;97868.30;110215;1242;68523;-74
2023/05/10 00:08:58;;;;;;;;;;;;;;;2.97;94.91;97866.50;110204;1242;59669;-74
2023/05/10 00:11:28;;;;;;;;;;;;;;;2.90;96.43;97859.88;110224;1241;59672;-73
2023/05/10 00:13:58;;;;;;;;;;;;;;;2.84;97.77;97857.33;110192;1242;70653;-74
2023/05/10 00:16:30;;;;;;;;;;;;;;;2.77;95.87;97858.11;110217;1245;68281;-74
2023/05/10 00:19:03;;;;;;;;;;;;;;;2.70;96.92;97856.97;110180;1242;69298;-73
2023/05/10 00:21:37;;;;;;;;;;;;;;;2.65;96.44;97854.58;110164;1242;59670;-74
2023/05/10 00:24:08;;;;;;;;;;;;;;;2.60;95.79;97851.29;110188;1241;59713;-73
2023/05/10 00:26:39;;;;;;;;;;;;;;;2.57;96.43;97849.14;110222;1241;69450;-73
2023/05/10 00:29:09;;;;;;;;;;;;;;;2.55;96.04;97845.61;110108;1244;69216;-73
2023/05/10 00:31:41;;;;;;;;;;;;;;;2.51;95.68;97844.88;110200;1242;68520;-73
2023/05/10 00:34:15;;;;;;;;;;;;;;;2.46;93.90;97841.60;110132;1240;59692;-73
2023/05/10 00:36:47;;;;;;;;;;;;;;;2.42;96.42;97844.30;110201;1244;59705;-73
2023/05/10 00:39:18;;;;;;;;;;;;;;;2.38;96.77;97844.63;110220;1242;71552;-75
2023/05/10 00:41:47;;;;;;;;;;;;;;;2.32;97.22;97846.37;110118;1245;69242;-74
2023/05/10 00:44:18;;;;;;;;;;;;;;;2.26;98.64;97843.80;110112;1245;69124;-74
2023/05/10 00:46:48;;;;;;;;;;;;;;;2.25;98.70;97843.17;110152;1242;59686;-74
2023/05/10 00:49:19;;;;;;;;;;;;;;;2.24;98.42;97843.02;110113;1245;59737;-74
2023/05/10 00:51:49;;;;;;;;;;;;;;;2.24;95.44;97844.75;110217;1241;71239;-74
2023/05/10 00:54:19;;;;;;;;;;;;;;;2.23;94.10;97844.45;110229;1249;68274;-72
2023/05/10 00:56:51;;;;;;;;;;;;;;;2.21;93.76;97847.08;110137;1246;69310;-74
2023/05/10 00:59:21;;;;;;;;;;;;;;;2.19;93.70;97846.78;110245;1242;59678;-74
2023/05/10 01:01:52;;;;;;;;;;;;;;;2.17;96.23;97849.95;110231;1242;59684;-73
2023/05/10 01:04:25;;;;;;;;;;;;;;;2.13;96.71;97850.10;110179;1241;71484;-74
2023/05/10 01:06:56;;;;;;;;;;;;;;;2.06;96.41;97851.69;110194;1244;69255;-73
2023/05/10 01:09:27;;;;;;;;;;;;;;;2.01;96.67;97851.31;110189;1242;68111;-73
2023/05/10 01:11:58;;;;;;;;;;;;;;;1.97;96.51;97851.11;110217;1244;59688;-74
2023/05/10 01:14:32;;;;;;;;;;;;;;;1.93;97.34;97850.53;110166;1242;59685;-73
2023/05/10 01:17:05;;;;;;;;;;;;;;;1.90;97.40;97848.57;110151;1242;70525;-73
2023/05/10 01:19:38;;;;;;;;;;;;;;;1.85;92.48;97846.66;110201;1241;69184;-74
2023/05/10 01:22:14;;;;;;;;;;;;;;;1.84;99.75;97842.91;110155;1240;69294;-74
2023/05/10 01:24:51;;;;;;;;;;;;;;;1.80;99.84;97842.00;110186;1242;59684;-73
2023/05/10 01:27:25;;;;;;;;;;;;;;;1.76;99.73;97838.02;110228;1241;59699;-76
2023/05/10 01:30:12;;;;;;;;;;;;;;;1.71;99.51;97835.75;110216;1241;71712;-74
2023/05/10 01:32:52;;;;;;;;;;;;;;;1.68;98.93;97829.83;110200;1242;69261;-74
2023/05/10 01:35:31;;;;;;;;;;;;;;;1.65;93.33;97826.63;110170;1243;69241;-74
2023/05/10 01:38:08;;;;;;;;;;;;;;;1.65;93.01;97827.52;110118;1245;59654;-74
2023/05/10 01:40:41;;;;;;;;;;;;;;;1.64;92.97;97830.11;110160;1241;59689;-74
2023/05/10 01:43:18;;;;;;;;;;;;;;;1.65;92.96;97829.75;110183;1242;71368;-74
2023/05/10 01:46:12;;;;;;;;;;;;;;;1.65;94.52;97831.30;110194;1246;68783;-74
2023/05/10 01:48:51;;;;;;;;;;;;;;;1.62;95.25;97831.21;110180;1242;69089;-74
2023/05/10 01:51:26;;;;;;;;;;;;;;;1.59;93.92;97827.55;110156;1243;59673;-74
2023/05/10 01:54:03;;;;;;;;;;;;;;;1.53;92.42;97825.80;110220;1240;59651;-74
2023/05/10 01:56:35;;;;;;;;;;;;;;;1.48;95.87;97825.27;110238;1249;71512;-74
2023/05/10 01:59:06;;;;;;;;;;;;;;;1.43;98.60;97819.74;110150;1245;69268;-74
2023/05/10 02:01:37;;;;;;;;;;;;;;;1.39;100.00;97818.34;110147;1245;69278;-74
2023/05/10 02:04:09;;;;;;;;;;;;;;;1.33;100.00;97819.53;110175;1242;59763;-74
2023/05/10 02:06:42;;;;;;;;;;;;;;;1.25;100.00;97816.16;109629;1245;639012;-74
2023/05/10 02:09:12;;;;;;;;;;;;;;;1.20;100.00;97817.00;110157;1242;70565;-74
2023/05/10 02:11:44;;;;;;;;;;;;;;;1.17;100.00;97816.73;110131;1244;68577;-73
2023/05/10 02:14:16;;;;;;;;;;;;;;;1.15;100.00;97816.45;110113;1245;69182;-74
2023/05/10 02:16:50;;;;;;;;;;;;;;;1.13;100.00;97812.75;110186;1240;59740;-74
2023/05/10 02:19:22;;;;;;;;;;;;;;;1.10;100.00;97814.02;110219;1241;59730;-74
2023/05/10 02:21:55;;;;;;;;;;;;;;;1.07;98.16;97813.61;110123;1244;71555;-74
2023/05/10 02:24:25;;;;;;;;;;;;;;;1.08;100.00;97813.42;110216;1243;68445;-74
2023/05/10 02:27:00;;;;;;;;;;;;;;;1.07;99.78;97815.33;110191;1242;69320;-73
2023/05/10 02:29:31;;;;;;;;;;;;;;;1.04;100.00;97813.16;110195;1240;59684;-74
2023/05/10 02:32:03;;;;;;;;;;;;;;;1.00;100.00;97811.73;110208;1242;59740;-74
2023/05/10 02:34:34;;;;;;;;;;;;;;;0.93;100.00;97810.73;110161;1241;70821;-73
2023/05/10 02:37:05;;;;;;;;;;;;;;;0.84;100.00;97810.64;110130;1241;69102;-74
2023/05/10 02:39:43;;;;;;;;;;;;;;;0.74;100.00;97812.63;110174;1242;69371;-73
2023/05/10 02:42:19;;;;;;;;;;;;;;;0.65;100.00;97812.00;110223;1241;59712;-73
2023/05/10 02:44:51;;;;;;;;;;;;;;;0.59;100.00;97811.83;110216;1249;59749;-73
2023/05/10 02:47:21;;;;;;;;;;;;;;;0.55;100.00;97816.39;110173;1241;71360;-73
2023/05/10 02:49:51;;;;;;;;;;;;;;;0.52;100.00;97813.23;110194;1242;68489;-73
2023/05/10 02:52:26;;;;;;;;;;;;;;;0.49;100.00;97813.27;110144;1241;69421;-73
2023/05/10 02:55:00;;;;;;;;;;;;;;;0.45;100.00;97815.42;110172;1242;59767;-74
2023/05/10 02:57:32;;;;;;;;;;;;;;;0.46;99.96;97817.48;110135;1241;59702;-73
2023/05/10 03:00:04;;;;;;;;;;;;;;;0.46;99.76;97815.74;110144;1243;70596;-73
2023/05/10 03:02:36;;;;;;;;;;;;;;;0.46;98.43;97815.94;110169;1242;68302;-74
2023/05/10 03:05:06;;;;;;;;;;;;;;;0.49;100.00;97814.80;110229;1242;68602;-73
2023/05/10 03:07:37;;;;;;;;;;;;;;;0.50;100.00;97813.92;110152;1243;59817;-73
2023/05/10 03:10:09;;;;;;;;;;;;;;;0.52;100.00;97816.80;110175;1242;59735;-73
2023/05/10 03:12:56;;;;;;;;;;;;;;;0.53;100.00;97811.81;110151;1242;70453;-73
2023/05/10 03:15:42;;;;;;;;;;;;;;;0.56;99.73;97811.06;110119;1246;69205;-73
2023/05/10 03:18:18;;;;;;;;;;;;;;;0.60;100.00;97808.54;110136;1241;69290;-73
2023/05/10 03:20:48;;;;;;;;;;;;;;;0.62;100.00;97806.77;110139;1242;59737;-73
2023/05/10 03:23:18;;;;;;;;;;;;;;;0.63;100.00;97804.17;110152;1245;59650;-73
2023/05/10 03:25:48;;;;;;;;;;;;;;;0.64;100.00;97804.66;110177;1242;71392;-73
2023/05/10 03:28:19;;;;;;;;;;;;;;;0.65;100.00;97803.95;110153;1242;68448;-73
2023/05/10 03:30:49;;;;;;;;;;;;;;;0.67;100.00;97804.26;110135;1241;69273;-73
2023/05/10 03:33:18;;;;;;;;;;;;;;;0.68;100.00;97804.18;110087;1241;59657;-73
2023/05/10 03:35:48;;;;;;;;;;;;;;;0.69;100.00;97806.05;110142;1244;59678;-73
2023/05/10 03:38:17;;;;;;;;;;;;;;;0.72;100.00;97803.94;110181;1241;72062;-73
2023/05/10 03:40:47;;;;;;;;;;;;;;;0.74;100.00;97803.37;110152;1241;69722;-74
2023/05/10 03:43:16;;;;;;;;;;;;;;;0.76;100.00;97803.98;110183;1252;69095;-73
2023/05/10 03:45:46;;;;;;;;;;;;;;;0.80;100.00;97800.61;110172;1245;59737;-74
2023/05/10 03:48:17;;;;;;;;;;;;;;;0.85;100.00;97803.05;110179;1246;59638;-73
2023/05/10 03:50:46;;;;;;;;;;;;;;;0.90;100.00;97802.74;110165;1246;71230;-73
2023/05/10 03:53:16;;;;;;;;;;;;;;;0.95;100.00;97800.20;110126;1251;67753;-73
2023/05/10 03:55:46;;;;;;;;;;;;;;;1.03;100.00;97796.02;110117;1242;69066;-74
2023/05/10 03:58:15;;;;;;;;;;;;;;;1.10;100.00;97799.10;110197;1243;59743;-73
2023/05/10 04:00:45;;;;;;;;;;;;;;;1.15;100.00;97796.04;110178;1243;59678;-73
2023/05/10 04:03:15;;;;;;;;;;;;;;;1.22;100.00;97796.67;110178;1240;70989;-73
2023/05/10 04:05:44;;;;;;;;;;;;;;;1.29;100.00;97796.98;110161;1244;69063;-73
2023/05/10 04:08:16;;;;;;;;;;;;;;;1.40;100.00;97795.64;110098;1246;69986;-73
2023/05/10 04:10:46;;;;;;;;;;;;;;;1.57;100.00;97797.52;110124;1247;59687;-74
2023/05/10 04:13:16;;;;;;;;;;;;;;;1.83;100.00;97795.69;110171;1245;59692;-73
2023/05/10 04:15:46;;;;;;;;;;;;;;;2.16;100.00;97795.98;110107;1245;70490;-73
2023/05/10 04:18:15;;;;;;;;;;;;;;;2.52;100.00;97795.11;110116;1246;69346;-73
2023/05/10 04:20:44;;;;;;;;;;;;;;;2.85;100.00;97795.15;110126;1241;69259;-74
2023/05/10 04:23:13;;;;;;;;;;;;;;;3.16;100.00;97796.29;110130;1251;59697;-73
2023/05/10 04:25:43;;;;;;;;;;;;;;;3.37;100.00;97795.34;110153;1244;59757;-74
2023/05/10 04:28:11;;;;;;;;;;;;;;;3.52;100.00;97796.98;110157;1241;71176;-72
2023/05/10 04:30:41;;;;;;;;;;;;;;;3.69;99.52;97792.39;110154;1242;68523;-73
2023/05/10 04:33:10;;;;;;;;;;;;;;;3.85;99.08;97792.27;110129;1252;69722;-72
2023/05/10 04:35:39;;;;;;;;;;;;;;;3.99;98.43;97796.19;110189;1246;60072;-73
2023/05/10 04:38:08;;;;;;;;;;;;;;;4.12;96.72;97795.48;110133;1242;59680;-72
2023/05/10 04:40:37;;;;;;;;;;;;;;;4.24;96.03;97798.06;110146;1242;71381;-72
2023/05/10 04:43:06;;;;;;;;;;;;;;;4.36;96.72;97800.86;110188;1244;68532;-72
2023/05/10 04:45:36;;;;;;;;;;;;;;;4.47;96.26;97799.00;110170;1245;69084;-72
2023/05/10 04:48:05;;;;;;;;;;;;;;;4.61;95.47;97793.77;110130;1241;59661;-72
2023/05/10 04:50:35;;;;;;;;;;;;;;;4.77;94.93;97793.41;110151;1245;59676;-72
2023/05/10 04:53:04;;;;;;;;;;;;;;;4.98;94.49;97789.93;110092;1252;71417;-72
2023/05/10 04:55:33;;;;;;;;;;;;;;;5.21;93.97;97789.04;110151;1244;69807;-72
2023/05/10 04:58:02;;;;;;;;;;;;;;;5.50;92.64;97791.54;110110;1245;68655;-72
2023/05/10 05:00:32;;;;;;;;;;;;;;;5.82;92.18;97793.17;110152;1241;59748;-72
2023/05/10 05:03:02;;;;;;;;;;;;;;;6.22;89.89;97792.45;110154;1246;59766;-72
2023/05/10 05:05:30;;;;;;;;;;;;;;;6.69;90.80;97788.16;110194;1242;71954;-71
2023/05/10 05:08:00;;;;;;;;;;;;;;;7.24;91.85;97787.41;110194;1241;69798;-74
2023/05/10 05:10:29;;;;;;;;;;;;;;;7.88;92.60;97788.78;110176;1243;68498;-72
2023/05/10 05:12:58;;;;;;;;;;;;;;;8.49;88.21;97787.36;110162;1242;59761;-71
2023/05/10 05:15:27;;;;;;;;;;;;;;;9.02;84.00;97784.38;110196;1242;59677;-72
2023/05/10 05:17:58;;;;;;;;;;;;;;;9.52;81.05;97784.13;110213;1241;71318;-72
2023/05/10 05:20:28;;;;;;;;;;;;;;;10.01;74.63;97779.61;110233;1242;70040;-73
2023/05/10 05:22:57;;;;;;;;;;;;;;;10.26;68.26;97778.89;110145;1249;69950;-71
2023/05/10 05:25:26;;;;;;;;;;;;;;;10.43;68.96;97779.29;110140;1242;59747;-72
2023/05/10 05:27:55;;;;;;;;;;;;;;;10.74;68.01;97778.45;110212;1242;59687;-74
2023/05/10 05:30:24;;;;;;;;;;;;;;;11.05;68.92;97775.15;110209;1243;70063;-73
2023/05/10 05:32:52;;;;;;;;;;;;;;;11.47;71.92;97780.02;110216;1242;68173;-73
2023/05/10 05:35:21;;;;;;;;;;;;;;;11.85;67.79;97784.35;110197;1242;69288;-73
2023/05/10 05:37:50;;;;;;;;;;;;;;;11.93;62.95;97784.28;110175;1242;59667;-73
2023/05/10 05:40:20;;;;;;;;;;;;;;;12.11;64.41;97785.27;110186;1242;59750;-72
2023/05/10 05:42:49;;;;;;;;;;;;;;;12.35;61.76;97782.24;110163;1241;71944;-74
2023/05/10 05:45:18;;;;;;;;;;;;;;;12.50;56.95;97784.33;110138;1249;70147;-74
2023/05/10 05:47:48;;;;;;;;;;;;;;;12.74;59.34;97776.89;110239;1241;69852;-73
2023/05/10 05:50:17;;;;;;;;;;;;;;;12.86;56.85;97780.72;110165;1241;59674;-72
2023/05/10 05:52:46;;;;;;;;;;;;;;;12.97;55.73;97779.70;110186;1242;59754;-73
2023/05/10 05:55:14;;;;;;;;;;;;;;;13.15;55.88;97778.98;110188;1242;71427;-73
2023/05/10 05:57:45;;;;;;;;;;;;;;;13.27;54.55;97783.52;110214;1241;69038;-73
2023/05/10 06:00:14;;;;;;;;;;;;;;;13.44;52.91;97783.41;110228;1242;69897;-73
2023/05/10 06:02:43;;;;;;;;;;;;;;;13.73;50.32;97779.36;110203;1240;59751;-71
2023/05/10 06:05:13;;;;;;;;;;;;;;;13.72;48.87;97780.34;110207;1242;59740;-73
2023/05/10 06:07:43;;;;;;;;;;;;;;;13.93;50.24;97777.10;110259;1242;70602;-72
2023/05/10 06:10:12;;;;;;;;;;;;;;;14.08;48.49;97776.38;110222;1242;69221;-72
2023/05/10 06:12:41;;;;;;;;;;;;;;;14.25;49.42;97778.00;110245;1242;69867;-73
2023/05/10 06:15:10;;;;;;;;;;;;;;;14.45;47.34;97773.52;110177;1242;59708;-71
2023/05/10 06:17:39;;;;;;;;;;;;;;;14.69;47.82;97770.34;110263;1243;59640;-74
2023/05/10 06:20:09;;;;;;;;;;;;;;;14.84;45.61;97770.34;110214;1241;70649;-72
2023/05/10 06:22:37;;;;;;;;;;;;;;;14.96;45.11;97768.20;110229;1243;69792;-73
2023/05/10 06:25:07;;;;;;;;;;;;;;;14.98;44.15;97766.14;110212;1242;69619;-72
2023/05/10 06:27:36;;;;;;;;;;;;;;;14.97;43.48;97766.70;110217;1242;60056;-74
2023/05/10 06:30:08;;;;;;;;;;;;;;;14.94;44.13;97767.02;110277;1242;59672;-74
2023/05/10 06:32:43;;;;;;;;;;;;;;;15.13;43.53;97760.42;110239;1240;71729;-72
2023/05/10 06:35:12;;;;;;;;;;;;;;;15.17;43.04;97765.77;110226;1244;69796;-72
2023/05/10 06:37:41;;;;;;;;;;;;;;;15.12;42.43;97766.70;110209;1242;68526;-73
2023/05/10 06:40:11;;;;;;;;;;;;;;;15.04;43.14;97763.34;110270;1241;60066;-72
2023/05/10 06:42:48;;;;;;;;;;;;;;;15.32;43.15;97764.77;110241;1242;59690;-72
2023/05/10 06:45:18;;;;;;;;;;;;;;;15.40;41.65;97763.80;110154;1241;71916;-72
2023/05/10 06:47:47;;;;;;;;;;;;;;;15.22;41.27;97766.64;110230;1242;70171;-72
2023/05/10 06:50:16;;;;;;;;;;;;;;;15.13;41.31;97763.08;110212;1242;69982;-72
2023/05/10 06:52:45;;;;;;;;;;;;;;;14.95;41.98;97760.91;110232;1242;59679;-72
2023/05/10 06:55:14;;;;;;;;;;;;;;;14.85;41.90;97760.77;110260;1242;59763;-73
2023/05/10 06:57:43;;;;;;;;;;;;;;;14.99;42.73;97763.57;110225;1241;70615;-72
2023/05/10 07:00:13;;;;;;;;;;;;;;;14.88;42.44;97758.95;110195;1242;70046;-73
2023/05/10 07:02:42;;;;;;;;;;;;;;;15.02;41.79;97755.60;110184;1240;69243;-72
2023/05/10 07:05:11;;;;;;;;;;;;;;;15.23;41.78;97751.33;110257;1242;59702;-73
2023/05/10 07:07:40;;;;;;;;;;;;;;;15.41;40.80;97754.00;110247;1242;59705;-73
2023/05/10 07:10:09;;;;;;;;;;;;;;;15.31;40.50;97752.09;110249;1241;71959;-73
2023/05/10 07:12:40;;;;;;;;;;;;;;;15.21;40.99;97744.34;110180;1242;69850;-73
2023/05/10 07:15:09;;;;;;;;;;;;;;;15.16;41.20;97743.83;110195;1242;68767;-73
2023/05/10 07:17:37;;;;;;;;;;;;;;;15.20;41.06;97742.60;110199;1242;59769;-72
2023/05/10 07:20:07;;;;;;;;;;;;;;;15.16;40.95;97742.09;110179;1243;59726;-72
2023/05/10 07:22:35;;;;;;;;;;;;;;;15.11;41.97;97743.91;110249;1242;70609;-72
2023/05/10 07:25:05;;;;;;;;;;;;;;;15.40;41.71;97749.72;110249;1242;68647;-73
2023/05/10 07:27:34;;;;;;;;;;;;;;;15.59;40.75;97749.27;110157;1245;69269;-72
2023/05/10 07:30:04;;;;;;;;;;;;;;;15.54;39.97;97750.05;110191;1242;59759;-72
2023/05/10 07:32:35;;;;;;;;;;;;;;;15.51;40.49;97746.95;110210;1248;59678;-72
2023/05/10 07:35:05;;;;;;;;;;;;;;;15.65;41.10;97746.96;110143;1242;69739;-72
2023/05/10 07:37:34;;;;;;;;;;;;;;;15.82;40.01;97747.61;110199;1243;69285;-73
2023/05/10 07:40:04;;;;;;;;;;;;;;;15.90;39.97;97747.27;110166;1242;69896;-72
2023/05/10 07:42:33;;;;;;;;;;;;;;;16.28;40.36;97747.88;110143;1241;59665;-73
2023/05/10 07:45:02;;;;;;;;;;;;;;;16.65;38.94;97741.51;110211;1243;59729;-73
2023/05/10 07:47:31;;;;;;;;;;;;;;;16.69;38.64;97743.71;110162;1241;70863;-73
2023/05/10 07:50:00;;;;;;;;;;;;;;;16.75;38.74;97739.91;110172;1242;69278;-74
2023/05/10 07:52:29;;;;;;;;;;;;;;;17.09;39.43;97738.52;110163;1242;68541;-72
2023/05/10 07:54:58;;;;;;;;;;;;;;;17.29;38.39;97743.73;110166;1242;59666;-72
2023/05/10 07:57:26;;;;;;;;;;;;;;;17.39;38.08;97739.14;110212;1242;59675;-73
2023/05/10 07:59:55;;;;;;;;;;;;;;;17.27;38.23;97736.08;110212;1249;71325;-72
2023/05/10 08:02:25;;;;;;;;;;;;;;;17.45;38.77;97737.90;110147;1242;69669;-73
2023/05/10 08:04:55;;;;;;;;;;;;;;;17.55;37.86;97739.53;110142;1242;69601;-71
2023/05/10 08:07:24;;;;;;;;;;;;;;;17.68;37.83;97734.60;110238;1241;59824;-72
2023/05/10 08:09:53;;;;;;;;;;;;;;;17.55;37.71;97732.55;110178;1243;59726;-73
2023/05/10 08:12:22;;;;;;;;;;;;;;;17.60;37.63;97730.08;110161;1242;70619;-72
2023/05/10 08:14:51;;;;;;;;;;;;;;;17.79;37.61;97726.00;110209;1242;69861;-72
2023/05/10 08:17:20;;;;;;;;;;;;;;;18.21;37.35;97731.52;110144;1241;69206;-71
2023/05/10 08:19:51;;;;;;;;;;;;;;;18.59;36.43;97727.21;110177;1242;59737;-72
2023/05/10 08:22:21;;;;;;;;;;;;;;;18.84;35.37;97724.53;110138;1242;59630;-72
2023/05/10 08:24:50;;;;;;;;;;;;;;;19.04;35.30;97728.29;110190;1242;71351;-72
2023/05/10 08:27:18;;;;;;;;;;;;;;;18.98;34.32;97725.58;110165;1242;69797;-74
2023/05/10 08:29:47;;;;;;;;;;;;;;;19.08;35.08;97727.03;110151;1242;69858;-73
2023/05/10 08:32:17;;;;;;;;;;;;;;;19.40;34.74;97729.40;110139;1249;59665;-73
2023/05/10 08:34:46;;;;;;;;;;;;;;;19.39;34.05;97733.23;110246;1242;59707;-73
2023/05/10 08:37:16;;;;;;;;;;;;;;;18.87;34.01;97732.35;110185;1241;71661;-71
2023/05/10 08:39:47;;;;;;;;;;;;;;;19.04;33.96;97729.75;110189;1241;68535;-72
2023/05/10 08:42:19;;;;;;;;;;;;;;;18.94;33.46;97734.85;110172;1241;69707;-73
2023/05/10 08:44:49;;;;;;;;;;;;;;;18.88;33.74;97736.87;110212;1241;59719;-72
2023/05/10 08:47:18;;;;;;;;;;;;;;;19.22;33.53;97735.09;110179;1242;59737;-73
2023/05/10 08:49:50;;;;;;;;;;;;;;;19.55;33.09;97735.74;110249;1242;71400;-71
2023/05/10 08:52:20;;;;;;;;;;;;;;;19.56;32.94;97726.52;110227;1242;69408;-72
2023/05/10 08:54:49;;;;;;;;;;;;;;;20.00;32.14;97728.80;110185;1242;69265;-72
2023/05/10 08:57:18;;;;;;;;;;;;;;;19.80;31.61;97735.32;110240;1247;59740;-72
2023/05/10 08:59:47;;;;;;;;;;;;;;;19.09;32.51;97724.41;110208;1242;59741;-74
2023/05/10 09:02:18;;;;;;;;;;;;;;;18.57;33.40;97728.65;110206;1242;71524;-73
2023/05/10 09:04:48;;;;;;;;;;;;;;;18.24;33.41;97726.55;110225;1242;69224;-74
2023/05/10 09:07:17;;;;;;;;;;;;;;;17.99;33.60;97724.54;110227;1242;69887;-73
2023/05/10 09:09:48;;;;;;;;;;;;;;;17.90;34.19;97723.13;110135;1241;59712;-73
2023/05/10 09:12:17;;;;;;;;;;;;;;;17.78;34.39;97724.12;110214;1242;59770;-72
2023/05/10 09:14:46;;;;;;;;;;;;;;;17.54;35.07;97722.23;110187;1242;71606;-73
2023/05/10 09:17:14;;;;;;;;;;;;;;;17.20;34.98;97719.59;110246;1242;69618;-72
2023/05/10 09:19:44;;;;;;;;;;;;;;;17.28;35.60;97713.07;110182;1241;69879;-71
2023/05/10 09:22:13;;;;;;;;;;;;;;;17.79;34.59;97712.05;110227;1242;59758;-73
2023/05/10 09:24:45;;;;;;;;;;;;;;;18.30;34.20;97707.06;110190;1242;59682;-72
2023/05/10 09:27:14;;;;;;;;;;;;;;;18.83;32.89;97708.43;110200;1242;71952;-72
2023/05/10 09:29:43;;;;;;;;;;;;;;;19.39;33.34;97707.00;110262;1242;69204;-73
2023/05/10 09:32:11;;;;;;;;;;;;;;;20.04;32.15;97705.67;110168;1242;69387;-73
2023/05/10 09:34:42;;;;;;;;;;;;;;;20.49;29.92;97699.13;110211;1242;59756;-75
2023/05/10 09:37:10;;;;;;;;;;;;;;;21.01;30.40;97696.54;110191;1242;60094;-73
2023/05/10 09:39:41;;;;;;;;;;;;;;;20.92;30.01;97695.28;110154;1242;71902;-73
2023/05/10 09:42:10;;;;;;;;;;;;;;;20.59;29.39;97699.54;110167;1242;69221;-73
2023/05/10 09:44:40;;;;;;;;;;;;;;;20.06;29.99;97703.55;110156;1242;69060;-73
2023/05/10 09:47:09;;;;;;;;;;;;;;;19.43;30.04;97699.89;110196;1242;59747;-74
2023/05/10 09:49:38;;;;;;;;;;;;;;;19.09;30.89;97693.92;110167;1242;59645;-74
2023/05/10 09:52:07;;;;;;;;;;;;;;;18.77;32.76;97695.65;110179;1242;71369;-73
2023/05/10 09:54:37;;;;;;;;;;;;;;;18.58;33.75;97685.67;110193;1242;69218;-73
2023/05/10 09:57:09;;;;;;;;;;;;;;;19.12;33.52;97683.33;110148;1242;69865;-72
2023/05/10 09:59:42;;;;;;;;;;;;;;;19.29;32.91;97680.52;110163;1248;59748;-72
2023/05/10 10:02:11;;;;;;;;;;;;;;;19.53;33.61;97678.55;110203;1244;59766;-73
2023/05/10 10:04:41;;;;;;;;;;;;;;;20.26;33.95;97673.73;110192;1240;71964;-73
2023/05/10 10:07:10;;;;;;;;;;;;;;;20.46;30.98;97672.02;110177;1241;69205;-73
2023/05/10 10:09:39;;;;;;;;;;;;;;;19.98;31.28;97676.45;110192;1242;69242;-73
2023/05/10 10:12:08;;;;;;;;;;;;;;;19.76;31.27;97675.41;110167;1242;59791;-72
2023/05/10 10:14:37;;;;;;;;;;;;;;;19.53;31.09;97673.59;110199;1241;59630;-72
2023/05/10 10:17:06;;;;;;;;;;;;;;;19.40;30.51;97669.48;110182;1242;71983;-72
2023/05/10 10:19:36;;;;;;;;;;;;;;;19.58;31.02;97666.84;110224;1241;69211;-72
2023/05/10 10:22:06;;;;;;;;;;;;;;;20.06;30.81;97662.52;110209;1242;69612;-72
2023/05/10 10:24:34;;;;;;;;;;;;;;;20.38;30.13;97661.73;110184;1240;59753;-72
2023/05/10 10:27:12;;;;;;;;;;;;;;;20.53;30.64;97661.84;110191;1243;59959;-74
2023/05/10 10:29:59;;;;;;;;;;;;;;;20.19;29.84;97663.79;110197;1241;71643;-72
2023/05/10 10:32:33;;;;;;;;;;;;;;;19.43;30.17;97662.61;110204;1242;69800;-73
2023/05/10 10:35:02;;;;;;;;;;;;;;;18.70;31.58;97664.66;110207;1241;69856;-73
2023/05/10 10:37:43;;;;;;;;;;;;;;;18.17;32.15;97667.78;110204;1242;59750;-72
2023/05/10 10:40:26;;;;;;;;;;;;;;;17.80;32.06;97660.84;110206;1242;59682;-72
2023/05/10 10:42:56;;;;;;;;;;;;;;;17.94;33.07;97656.52;110239;1241;70401;-72
2023/05/10 10:45:26;;;;;;;;;;;;;;;18.48;33.20;97658.77;110241;1242;69065;-72
2023/05/10 10:48:13;;;;;;;;;;;;;;;19.12;32.71;97654.56;110227;1241;69273;-72
2023/05/10 10:50:46;;;;;;;;;;;;;;;19.95;31.63;97656.20;110240;1242;59711;-74
2023/05/10 10:53:14;;;;;;;;;;;;;;;20.39;29.67;97650.21;110264;1241;59753;-73
2023/05/10 10:55:47;;;;;;;;;;;;;;;20.42;29.26;97649.75;110258;1242;71516;-73
2023/05/10 10:58:29;;;;;;;;;;;;;;;20.29;27.28;97647.10;110228;1242;69788;-73
2023/05/10 11:01:10;;;;;;;;;;;;;;;20.59;27.66;97649.52;110177;1244;69302;-73
2023/05/10 11:03:39;;;;;;;;;;;;;;;20.92;27.18;97644.95;110252;1240;59744;-71
2023/05/10 11:06:08;;;;;;;;;;;;;;;21.25;26.89;97635.53;110229;1242;59683;-72
2023/05/10 11:08:43;;;;;;;;;;;;;;;21.29;25.69;97641.00;110303;1241;71954;-72
2023/05/10 11:11:14;;;;;;;;;;;;;;;21.51;26.13;97641.90;110340;1244;69168;-73
2023/05/10 11:13:44;;;;;;;;;;;;;;;21.83;25.56;97641.56;110337;1243;69879;-74
2023/05/10 11:16:20;;;;;;;;;;;;;;;21.77;25.02;97642.08;110274;1241;59769;-74
2023/05/10 11:19:01;;;;;;;;;;;;;;;21.98;26.46;97637.71;110297;1242;59682;-73
2023/05/10 11:21:30;;;;;;;;;;;;;;;22.58;25.77;97637.04;110268;1241;70617;-73
2023/05/10 11:24:00;;;;;;;;;;;;;;;22.49;24.20;97638.30;110254;1242;68824;-73
2023/05/10 11:26:36;;;;;;;;;;;;;;;22.38;24.13;97639.71;110251;1242;69157;-74
2023/05/10 11:29:04;;;;;;;;;;;;;;;22.33;25.03;97631.69;110235;1241;59751;-75
2023/05/10 11:31:34;;;;;;;;;;;;;;;22.53;26.04;97630.39;110276;1242;59717;-74
2023/05/10 11:34:03;;;;;;;;;;;;;;;22.96;25.46;97630.77;110285;1242;71356;-73
2023/05/10 11:36:33;;;;;;;;;;;;;;;23.04;24.98;97629.12;110227;1242;69107;-74
2023/05/10 11:39:02;;;;;;;;;;;;;;;22.97;25.54;97624.58;110212;1242;69266;-74
2023/05/10 11:41:31;;;;;;;;;;;;;;;23.35;25.29;97627.04;110204;1243;59695;-72
2023/05/10 11:44:00;;;;;;;;;;;;;;;23.20;24.35;97628.61;110259;1242;59752;-72
2023/05/10 11:46:29;;;;;;;;;;;;;;;22.91;25.26;97623.35;110259;1240;71452;-72
2023/05/10 11:49:06;;;;;;;;;;;;;;;22.87;25.35;97618.36;110211;1242;68372;-72
2023/05/10 11:51:39;;;;;;;;;;;;;;;22.27;24.96;97617.81;110258;1240;69711;-74
2023/05/10 11:54:09;;;;;;;;;;;;;;;21.50;27.00;97620.66;110197;1241;59769;-73
2023/05/10 11:56:39;;;;;;;;;;;;;;;21.29;27.91;97613.35;110190;1242;59682;-72
2023/05/10 11:59:08;;;;;;;;;;;;;;;21.44;28.53;97610.26;110230;1242;71958;-72
2023/05/10 12:01:37;;;;;;;;;;;;;;;21.37;27.00;97613.71;110202;1242;69845;-73
2023/05/10 12:04:06;;;;;;;;;;;;;;;21.11;26.87;97609.80;110211;1242;68544;-72
2023/05/10 12:06:40;;;;;;;;;;;;;;;21.01;27.55;97606.60;110204;1240;59701;-72
2023/05/10 12:09:09;;;;;;;;;;;;;;;20.97;28.18;97605.98;110189;1242;59731;-73
2023/05/10 12:11:39;;;;;;;;;;;;;;;20.77;28.20;97606.02;110194;1244;70578;-73
2023/05/10 12:14:11;;;;;;;;;;;;;;;20.47;28.58;97600.69;110223;1242;70249;-71
2023/05/10 12:16:43;;;;;;;;;;;;;;;20.33;28.93;97601.88;110221;1240;69619;-73
2023/05/10 12:19:12;;;;;;;;;;;;;;;20.28;29.66;97600.45;110174;1240;59737;-73
2023/05/10 12:21:41;;;;;;;;;;;;;;;20.35;28.34;97593.88;110215;1241;59798;-74
2023/05/10 12:24:10;;;;;;;;;;;;;;;20.39;29.04;97593.34;110185;1240;71337;-73
2023/05/10 12:26:39;;;;;;;;;;;;;;;20.30;27.71;97595.59;110212;1241;69907;-72
2023/05/10 12:29:17;;;;;;;;;;;;;;;19.94;27.44;97597.80;110179;1242;69593;-73
2023/05/10 12:31:56;;;;;;;;;;;;;;;19.89;27.03;97595.89;110202;1242;59717;-73
2023/05/10 12:34:25;;;;;;;;;;;;;;;19.96;26.99;97587.00;110212;1245;59675;-74
2023/05/10 12:36:54;;;;;;;;;;;;;;;20.57;27.47;97586.35;110195;1247;70835;-74
2023/05/10 12:39:23;;;;;;;;;;;;;;;20.89;28.47;97577.25;110258;1240;69280;-73
2023/05/10 12:41:52;;;;;;;;;;;;;;;21.05;27.84;97583.42;110220;1242;69329;-74
2023/05/10 12:44:21;;;;;;;;;;;;;;;21.13;27.10;97580.19;110192;1241;59750;-75
2023/05/10 12:46:50;;;;;;;;;;;;;;;21.03;27.31;97574.76;110245;1241;59619;-75
2023/05/10 12:49:19;;;;;;;;;;;;;;;20.89;27.21;97572.50;110245;1242;71935;-73
2023/05/10 12:51:47;;;;;;;;;;;;;;;20.63;27.44;97573.63;110233;1242;68323;-73
2023/05/10 12:54:16;;;;;;;;;;;;;;;20.50;27.81;97569.89;110188;1240;69248;-74
2023/05/10 12:56:45;;;;;;;;;;;;;;;20.43;28.89;97568.95;110212;1242;59677;-74